| time (UTC) | temp C | wind direction | speed KPH | gust KPH | rain 1hr cm | rain 24hr cm | rain mn cm | humidity % | barometer mb |
| 20260504012020 | 18 | 218 | 3.2 | 9.7 | 0.00 | 0.00 | 0.00 | 52 | 1005.0 |
| 20260504011020 | 18 | 226 | 3.2 | 9.7 | 0.00 | 0.00 | 0.00 | 52 | 1005.0 |
| 20260504010017 | 18 | 209 | 3.2 | 8.0 | 0.00 | 0.00 | 0.00 | 51 | 1005.1 |
| 20260504005018 | 18 | 210 | 3.2 | 9.7 | 0.00 | 0.00 | 0.00 | 50 | 1005.1 |
| 20260504004018 | 18 | 206 | 3.2 | 9.7 | 0.00 | 0.00 | 0.00 | 49 | 1005.1 |
| 20260504003018 | 19 | 212 | 3.2 | 9.7 | 0.00 | 0.00 | 0.00 | 48 | 1005.1 |
| 20260504002018 | 19 | 213 | 3.2 | 9.7 | 0.00 | 0.00 | 0.00 | 48 | 1005.0 |
| 20260504001018 | 19 | 221 | 4.8 | 16.1 | 0.00 | 0.00 | 0.00 | 47 | 1005.0 |
| 20260504000018 | 20 | 215 | 3.2 | 11.3 | 0.00 | 0.00 | 0.00 | 46 | 1005.0 |
| 20260503235018 | 20 | 196 | 3.2 | 8.0 | 0.00 | 0.00 | 0.00 | 46 | 1005.0 |
| 20260503234018 | 20 | 201 | 4.8 | 12.9 | 0.00 | 0.00 | 0.00 | 45 | 1005.0 |
| 20260503233018 | 20 | 185 | 4.8 | 11.3 | 0.00 | 0.00 | 0.00 | 45 | 1005.1 |
| 20260503232019 | 20 | 206 | 6.4 | 14.5 | 0.00 | 0.00 | 0.00 | 44 | 1005.1 |
| 20260503231016 | 20 | 216 | 6.4 | 12.9 | 0.00 | 0.00 | 0.00 | 44 | 1005.2 |
| 20260503230019 | 20 | 188 | 4.8 | 11.3 | 0.00 | 0.00 | 0.00 | 44 | 1005.4 |
| 20260503225019 | 20 | 165 | 6.4 | 16.1 | 0.00 | 0.00 | 0.00 | 44 | 1005.4 |
| 20260503224019 | 19 | 205 | 6.4 | 16.1 | 0.00 | 0.00 | 0.00 | 44 | 1005.6 |
| 20260503223040 | 19 | 209 | 4.8 | 9.7 | 0.00 | 0.00 | 0.00 | 44 | 1005.8 |
| 20260503222017 | 19 | 210 | 4.8 | 11.3 | 0.00 | 0.00 | 0.00 | 44 | 1005.9 |
| 20260503221017 | 19 | 189 | 6.4 | 14.5 | 0.00 | 0.00 | 0.00 | 44 | 1006.1 |
| 20260503220037 | 18 | 204 | 6.4 | 14.5 | 0.00 | 0.00 | 0.00 | 44 | 1006.1 |
| 20260503215021 | 18 | 201 | 4.8 | 17.7 | 0.00 | 0.00 | 0.00 | 45 | 1006.2 |
| 20260503214021 | 18 | 212 | 8.0 | 16.1 | 0.00 | 0.00 | 0.00 | 43 | 1006.2 |
| 20260503213018 | 18 | 215 | 6.4 | 14.5 | 0.00 | 0.00 | 0.00 | 42 | 1006.3 |
| 20260503212018 | 18 | 208 | 4.8 | 12.9 | 0.00 | 0.00 | 0.00 | 42 | 1006.4 |
| 20260503211018 | 18 | 201 | 6.4 | 12.9 | 0.00 | 0.00 | 0.00 | 43 | 1006.5 |
| 20260503210018 | 17 | 200 | 4.8 | 12.9 | 0.00 | 0.00 | 0.00 | 44 | 1006.7 |
| 20260503205018 | 17 | 193 | 6.4 | 12.9 | 0.00 | 0.00 | 0.00 | 44 | 1006.8 |
| 20260503204039 | 17 | 196 | 6.4 | 14.5 | 0.00 | 0.00 | 0.00 | 45 | 1007.2 |
| 20260503203038 | 17 | 219 | 6.4 | 14.5 | 0.00 | 0.00 | 0.00 | 47 | 1007.3 |
| 20260503202019 | 17 | 182 | 6.4 | 19.3 | 0.00 | 0.00 | 0.00 | 46 | 1007.6 |
| 20260503201019 | 17 | 212 | 8.0 | 17.7 | 0.00 | 0.00 | 0.00 | 49 | 1007.7 |
| 20260503200020 | 16 | 196 | 8.0 | 16.1 | 0.00 | 0.00 | 0.00 | 52 | 1008.0 |
| 20260503195019 | 16 | 192 | 6.4 | 17.7 | 0.00 | 0.00 | 0.00 | 52 | 1008.0 |
| 20260503194017 | 16 | 197 | 6.4 | 17.7 | 0.00 | 0.00 | 0.00 | 52 | 1008.2 |
| 20260503193017 | 16 | 188 | 6.4 | 19.3 | 0.00 | 0.00 | 0.00 | 52 | 1008.3 |
| 20260503192040 | 15 | 209 | 4.8 | 12.9 | 0.00 | 0.00 | 0.00 | 52 | 1008.5 |
| 20260503191020 | 14 | 224 | 6.4 | 14.5 | 0.00 | 0.00 | 0.00 | 55 | 1008.6 |
| 20260503190020 | 14 | 212 | 6.4 | 19.3 | 0.00 | 0.00 | 0.00 | 56 | 1008.8 |
| 20260503185017 | 13 | 210 | 6.4 | 17.7 | 0.00 | 0.00 | 0.00 | 58 | 1009.0 |
| 20260503184018 | 12 | 189 | 4.8 | 11.3 | 0.00 | 0.00 | 0.00 | 62 | 1009.2 |
| 20260503183018 | 12 | 196 | 4.8 | 12.9 | 0.00 | 0.00 | 0.00 | 62 | 1009.3 |
| 20260503182018 | 12 | 204 | 6.4 | 14.5 | 0.00 | 0.00 | 0.00 | 63 | 1009.6 |
| 20260503181018 | 12 | 215 | 6.4 | 17.7 | 0.00 | 0.00 | 0.00 | 63 | 1010.1 |
| 20260503180018 | 12 | 221 | 6.4 | 12.9 | 0.00 | 0.00 | 0.00 | 65 | 1010.5 |
| 20260503175018 | 12 | 195 | 6.4 | 17.7 | 0.00 | 0.00 | 0.00 | 65 | 1010.9 |
| 20260503174018 | 11 | 185 | 6.4 | 14.5 | 0.00 | 0.00 | 0.00 | 67 | 1011.1 |
| 20260503173019 | 11 | 212 | 4.8 | 12.9 | 0.00 | 0.00 | 0.00 | 70 | 1011.3 |
| 20260503172019 | 11 | 212 | 6.4 | 17.7 | 0.00 | 0.00 | 0.00 | 71 | 1011.7 |
| 20260503171039 | 11 | 217 | 4.8 | 9.7 | 0.00 | 0.00 | 0.00 | 74 | 1011.7 |
| 20260503131037 | 11 | 216 | 4.8 | 14.5 | 0.00 | 0.00 | 0.00 | 57 | 1013.3 |
| 20260503081030 | 7 | 224 | 3.2 | 4.8 | 0.00 | 0.00 | 0.00 | 59 | 1013.7 |
| 20260503080110 | 7 | 241 | 3.2 | 4.8 | 0.00 | 0.00 | 0.00 | 58 | 1013.7 |
| 20260503072017 | 8 | 237 | 3.2 | 8.0 | 0.00 | 0.00 | 0.00 | 56 | 1013.9 |
| 20260503071037 | 8 | 227 | 3.2 | 9.7 | 0.00 | 0.00 | 0.00 | 56 | 1013.9 |
| 20260503055038 | 8 | 206 | 3.2 | 6.4 | 0.00 | 0.00 | 0.00 | 57 | 1014.6 |
| 20260503054018 | 8 | 217 | 3.2 | 6.4 | 0.00 | 0.00 | 0.00 | 57 | 1014.6 |
| 20260503053018 | 8 | 222 | 3.2 | 8.0 | 0.00 | 0.00 | 0.00 | 57 | 1014.7 |
| 20260503052018 | 8 | 244 | 3.2 | 4.8 | 0.00 | 0.00 | 0.00 | 57 | 1014.8 |
| 20260503051018 | 8 | 236 | 3.2 | 8.0 | 0.00 | 0.00 | 0.00 | 57 | 1014.9 |
| 20260503050018 | 8 | 223 | 3.2 | 8.0 | 0.00 | 0.00 | 0.00 | 57 | 1015.0 |
| 20260503045019 | 8 | 227 | 3.2 | 4.8 | 0.00 | 0.00 | 0.00 | 57 | 1015.0 |
| 20260503044017 | 8 | 214 | 3.2 | 9.7 | 0.00 | 0.00 | 0.00 | 56 | 1015.0 |
| 20260503043039 | 8 | 233 | 3.2 | 6.4 | 0.00 | 0.00 | 0.00 | 56 | 1015.0 |
| 20260503042020 | 8 | 223 | 3.2 | 8.0 | 0.00 | 0.00 | 0.00 | 58 | 1015.0 |
| 20260503041019 | 8 | 245 | 3.2 | 4.8 | 0.00 | 0.00 | 0.00 | 58 | 1015.1 |
| 20260503040017 | 8 | 233 | 1.6 | 4.8 | 0.00 | 0.00 | 0.00 | 58 | 1015.1 |
| 20260503035017 | 8 | 244 | 3.2 | 6.4 | 0.00 | 0.00 | 0.00 | 57 | 1015.2 |
| 20260503034017 | 8 | 238 | 3.2 | 4.8 | 0.00 | 0.00 | 0.00 | 57 | 1015.2 |
| 20260503033017 | 8 | 216 | 3.2 | 4.8 | 0.00 | 0.00 | 0.00 | 60 | 1015.2 |
| 20260503032020 | 8 | 260 | 1.6 | 4.8 | 0.00 | 0.00 | 0.00 | 63 | 1015.3 |
| 20260503031038 | 8 | 233 | 1.6 | 4.8 | 0.00 | 0.00 | 0.00 | 66 | 1015.4 |
| 20260503030017 | 7 | 242 | 1.6 | 8.0 | 0.00 | 0.00 | 0.00 | 71 | 1015.4 |
| 20260503025017 | 7 | 74 | 1.6 | 3.2 | 0.00 | 0.00 | 0.00 | 73 | 1015.5 |
| 20260503024018 | 7 | 96 | 1.6 | 3.2 | 0.00 | 0.00 | 0.00 | 79 | 1015.4 |
| 20260503023018 | 7 | 85 | 1.6 | 3.2 | 0.00 | 0.00 | 0.00 | 80 | 1015.5 |
| 20260503022018 | 7 | 101 | 1.6 | 3.2 | 0.00 | 0.00 | 0.00 | 81 | 1015.5 |
| 20260503021038 | 7 | 85 | 1.6 | 1.6 | 0.00 | 0.00 | 0.00 | 81 | 1015.5 |
| 20260503020018 | 7 | 75 | 1.6 | 3.2 | 0.00 | 0.00 | 0.00 | 80 | 1015.4 |
| 20260503015019 | 7 | 94 | 1.6 | 1.6 | 0.00 | 0.00 | 0.00 | 80 | 1015.3 |
| 20260503014018 | 7 | 70 | 1.6 | 1.6 | 0.00 | 0.00 | 0.00 | 79 | 1015.3 |
| 20260503013019 | 8 | 78 | 1.6 | 1.6 | 0.00 | 0.00 | 0.00 | 79 | 1015.3 |